South Point, Ohio
Current Conditions -  °F | °C
As of 3:51 AM on Wednesday 28 Jan 2015 (Local Time) from KHTS Reporting Station
Clear Clear  
Wind Chill: 17°   Ceiling: Unl
Heat Index: 17°   Visibility: 10mi
Dew Point: 12°   Wind: 3mph
Humidity: 81%   Direction: 10°N
Pressure: 30.26"   Gusts: NA
Location:  38.42°N, 82.59°W
Report Text: KHTS 280851Z 01003KT 10SM CLR M08/M11 A3026 RMK AO2 SLP259 T10831111 51012 $
Loading
Personal Weather Stations






























Interactive Weather Map New forecast layout! Learn more

10-Day Weather Forecast

Advertisements
Track Severe Weather on mobile